sensor_id;sensor_type;location;lat;lon;timestamp;pressure;altitude;pressure_sealevel;temperature;humidity
40920;BME280;26652;50.280;19.026;2023-09-18T00:00:03;98460.75;;;19.85;89.48
40920;BME280;26652;50.280;19.026;2023-09-18T00:02:05;98451.09;;;19.76;89.60
40920;BME280;26652;50.280;19.026;2023-09-18T00:04:06;98466.25;;;19.89;89.89
40920;BME280;26652;50.280;19.026;2023-09-18T00:06:07;98451.16;;;19.64;91.07
40920;BME280;26652;50.280;19.026;2023-09-18T00:08:09;98447.50;;;19.60;91.75
40920;BME280;26652;50.280;19.026;2023-09-18T00:10:10;98451.41;;;19.63;91.97
40920;BME280;26652;50.280;19.026;2023-09-18T00:12:11;98456.34;;;19.64;92.15
40920;BME280;26652;50.280;19.026;2023-09-18T00:14:12;98446.53;;;19.49;92.94
40920;BME280;26652;50.280;19.026;2023-09-18T00:16:13;98464.78;;;19.59;93.19
40920;BME280;26652;50.280;19.026;2023-09-18T00:18:14;98452.81;;;19.53;93.10
40920;BME280;26652;50.280;19.026;2023-09-18T00:20:15;98448.00;;;19.45;92.92
40920;BME280;26652;50.280;19.026;2023-09-18T00:22:19;98461.16;;;19.44;93.68
40920;BME280;26652;50.280;19.026;2023-09-18T00:24:20;98456.22;;;19.42;92.90
40920;BME280;26652;50.280;19.026;2023-09-18T00:26:21;98462.59;;;19.51;93.23
40920;BME280;26652;50.280;19.026;2023-09-18T00:28:22;98441.13;;;19.51;92.20
40920;BME280;26652;50.280;19.026;2023-09-18T00:30:22;98446.53;;;19.49;92.04
40920;BME280;26652;50.280;19.026;2023-09-18T00:32:23;98447.22;;;19.45;92.57
40920;BME280;26652;50.280;19.026;2023-09-18T00:34:23;98456.06;;;19.32;93.06
40920;BME280;26652;50.280;19.026;2023-09-18T00:36:24;98449.50;;;19.41;92.66
40920;BME280;26652;50.280;19.026;2023-09-18T00:38:25;98452.84;;;19.42;92.44
40920;BME280;26652;50.280;19.026;2023-09-18T00:40:25;98448.31;;;19.49;91.70
40920;BME280;26652;50.280;19.026;2023-09-18T00:42:26;98462.78;;;19.50;91.53
40920;BME280;26652;50.280;19.026;2023-09-18T00:44:26;98456.19;;;19.54;90.94
40920;BME280;26652;50.280;19.026;2023-09-18T00:46:27;98463.94;;;19.71;90.70
40920;BME280;26652;50.280;19.026;2023-09-18T00:48:28;98464.00;;;19.76;89.82
40920;BME280;26652;50.280;19.026;2023-09-18T00:50:30;98458.75;;;19.71;89.00
40920;BME280;26652;50.280;19.026;2023-09-18T00:52:31;98451.91;;;19.81;88.66
40920;BME280;26652;50.280;19.026;2023-09-18T00:54:33;98446.94;;;19.75;88.45
40920;BME280;26652;50.280;19.026;2023-09-18T00:56:34;98452.47;;;19.83;87.98
40920;BME280;26652;50.280;19.026;2023-09-18T00:58:35;98452.16;;;19.80;87.65
40920;BME280;26652;50.280;19.026;2023-09-18T01:00:35;98454.97;;;19.78;88.13
40920;BME280;26652;50.280;19.026;2023-09-18T01:02:36;98449.81;;;19.78;88.56
40920;BME280;26652;50.280;19.026;2023-09-18T01:04:37;98447.22;;;19.78;87.53
40920;BME280;26652;50.280;19.026;2023-09-18T01:06:37;98439.97;;;19.58;88.07
40920;BME280;26652;50.280;19.026;2023-09-18T01:08:38;98456.72;;;19.56;89.31
40920;BME280;26652;50.280;19.026;2023-09-18T01:10:54;98440.56;;;19.49;89.25
40920;BME280;26652;50.280;19.026;2023-09-18T01:13:12;98454.06;;;19.68;89.23
40920;BME280;26652;50.280;19.026;2023-09-18T01:15:27;98443.34;;;19.59;89.10
40920;BME280;26652;50.280;19.026;2023-09-18T01:17:34;98441.31;;;19.61;88.65
40920;BME280;26652;50.280;19.026;2023-09-18T01:19:42;98431.88;;;19.38;89.25
40920;BME280;26652;50.280;19.026;2023-09-18T01:21:46;98434.78;;;19.42;89.83
40920;BME280;26652;50.280;19.026;2023-09-18T01:23:48;98447.56;;;19.65;88.84
40920;BME280;26652;50.280;19.026;2023-09-18T01:25:49;98450.06;;;19.60;89.40
40920;BME280;26652;50.280;19.026;2023-09-18T01:27:50;98446.94;;;19.58;89.24
40920;BME280;26652;50.280;19.026;2023-09-18T01:29:52;98444.38;;;19.58;88.85
40920;BME280;26652;50.280;19.026;2023-09-18T01:31:54;98445.84;;;19.54;88.67
40920;BME280;26652;50.280;19.026;2023-09-18T01:33:55;98459.94;;;19.63;89.01
40920;BME280;26652;50.280;19.026;2023-09-18T01:35:57;98435.66;;;19.47;89.20
40920;BME280;26652;50.280;19.026;2023-09-18T01:37:59;98453.13;;;19.57;88.74
40920;BME280;26652;50.280;19.026;2023-09-18T01:40:02;98450.53;;;19.57;89.37
40920;BME280;26652;50.280;19.026;2023-09-18T01:42:07;98451.94;;;19.65;89.02
40920;BME280;26652;50.280;19.026;2023-09-18T01:44:09;98444.91;;;19.60;88.75
40920;BME280;26652;50.280;19.026;2023-09-18T01:46:10;98443.31;;;19.42;89.28
40920;BME280;26652;50.280;19.026;2023-09-18T01:48:11;98436.03;;;19.39;89.83
40920;BME280;26652;50.280;19.026;2023-09-18T01:50:12;98442.28;;;19.43;89.43
40920;BME280;26652;50.280;19.026;2023-09-18T01:52:13;98451.56;;;19.56;89.47
40920;BME280;26652;50.280;19.026;2023-09-18T01:54:14;98448.94;;;19.39;88.95
40920;BME280;26652;50.280;19.026;2023-09-18T01:56:14;98436.59;;;19.41;89.01
40920;BME280;26652;50.280;19.026;2023-09-18T01:58:15;98437.75;;;19.50;89.12
40920;BME280;26652;50.280;19.026;2023-09-18T02:00:16;98442.25;;;19.55;88.44
40920;BME280;26652;50.280;19.026;2023-09-18T02:02:17;98440.66;;;19.37;89.00
40920;BME280;26652;50.280;19.026;2023-09-18T02:04:18;98453.88;;;19.41;89.88
40920;BME280;26652;50.280;19.026;2023-09-18T02:06:18;98432.00;;;19.15;90.18
40920;BME280;26652;50.280;19.026;2023-09-18T02:08:19;98430.06;;;19.22;90.33
40920;BME280;26652;50.280;19.026;2023-09-18T02:10:19;98441.56;;;19.14;90.73
40920;BME280;26652;50.280;19.026;2023-09-18T02:12:20;98448.22;;;19.27;90.56
40920;BME280;26652;50.280;19.026;2023-09-18T02:14:21;98440.94;;;19.24;90.13
40920;BME280;26652;50.280;19.026;2023-09-18T02:16:22;98438.53;;;19.34;90.26
40920;BME280;26652;50.280;19.026;2023-09-18T02:18:24;98445.97;;;19.47;89.04
40920;BME280;26652;50.280;19.026;2023-09-18T02:20:25;98423.91;;;19.40;88.59
40920;BME280;26652;50.280;19.026;2023-09-18T02:22:25;98429.94;;;19.45;88.59
40920;BME280;26652;50.280;19.026;2023-09-18T02:24:26;98431.81;;;19.50;88.43
40920;BME280;26652;50.280;19.026;2023-09-18T02:26:27;98422.19;;;19.45;87.33
40920;BME280;26652;50.280;19.026;2023-09-18T02:28:27;98416.91;;;19.52;87.48
40920;BME280;26652;50.280;19.026;2023-09-18T02:30:28;98429.66;;;19.58;87.16
40920;BME280;26652;50.280;19.026;2023-09-18T02:32:28;98432.78;;;19.61;86.80
40920;BME280;26652;50.280;19.026;2023-09-18T02:34:30;98428.78;;;19.53;86.67
40920;BME280;26652;50.280;19.026;2023-09-18T02:36:31;98433.22;;;19.41;87.87
40920;BME280;26652;50.280;19.026;2023-09-18T02:38:35;98424.91;;;19.22;88.57
40920;BME280;26652;50.280;19.026;2023-09-18T02:40:35;98427.22;;;19.07;89.22
40920;BME280;26652;50.280;19.026;2023-09-18T02:42:36;98416.34;;;19.05;88.64
40920;BME280;26652;50.280;19.026;2023-09-18T02:44:37;98415.34;;;19.06;88.42
40920;BME280;26652;50.280;19.026;2023-09-18T02:46:38;98430.31;;;19.20;88.34
40920;BME280;26652;50.280;19.026;2023-09-18T02:48:39;98413.06;;;18.92;89.01
40920;BME280;26652;50.280;19.026;2023-09-18T02:50:39;98418.84;;;19.00;88.80
40920;BME280;26652;50.280;19.026;2023-09-18T02:52:40;98423.81;;;18.89;89.38
40920;BME280;26652;50.280;19.026;2023-09-18T02:54:41;98418.59;;;18.84;89.76
40920;BME280;26652;50.280;19.026;2023-09-18T02:56:41;98429.00;;;18.89;90.06
40920;BME280;26652;50.280;19.026;2023-09-18T02:58:42;98420.19;;;18.74;90.63
40920;BME280;26652;50.280;19.026;2023-09-18T03:00:43;98410.03;;;18.67;90.45
40920;BME280;26652;50.280;19.026;2023-09-18T03:02:44;98429.66;;;18.68;91.06
40920;BME280;26652;50.280;19.026;2023-09-18T03:04:45;98426.28;;;18.68;91.52
40920;BME280;26652;50.280;19.026;2023-09-18T03:06:45;98418.78;;;18.66;92.58
40920;BME280;26652;50.280;19.026;2023-09-18T03:08:46;98423.94;;;18.66;91.89
40920;BME280;26652;50.280;19.026;2023-09-18T03:10:47;98410.03;;;18.67;90.04
40920;BME280;26652;50.280;19.026;2023-09-18T03:12:48;98397.59;;;18.64;89.79
40920;BME280;26652;50.280;19.026;2023-09-18T03:14:48;98416.69;;;18.80;90.75
40920;BME280;26652;50.280;19.026;2023-09-18T03:16:49;98398.63;;;18.80;90.19
40920;BME280;26652;50.280;19.026;2023-09-18T03:18:50;98411.53;;;18.80;89.65
40920;BME280;26652;50.280;19.026;2023-09-18T03:20:51;98415.78;;;18.86;90.28
40920;BME280;26652;50.280;19.026;2023-09-18T03:22:54;98396.19;;;18.73;91.08
40920;BME280;26652;50.280;19.026;2023-09-18T03:24:55;98387.63;;;18.68;90.08
40920;BME280;26652;50.280;19.026;2023-09-18T03:26:55;98405.91;;;18.83;89.34
40920;BME280;26652;50.280;19.026;2023-09-18T03:28:56;98395.75;;;18.76;90.26
40920;BME280;26652;50.280;19.026;2023-09-18T03:30:57;98389.88;;;18.64;91.91
40920;BME280;26652;50.280;19.026;2023-09-18T03:32:58;98399.41;;;18.64;92.80
40920;BME280;26652;50.280;19.026;2023-09-18T03:34:59;98400.84;;;18.71;92.84
40920;BME280;26652;50.280;19.026;2023-09-18T03:36:59;98396.69;;;18.70;92.63
40920;BME280;26652;50.280;19.026;2023-09-18T03:39:00;98385.81;;;18.68;92.43
40920;BME280;26652;50.280;19.026;2023-09-18T03:41:01;98383.25;;;18.68;92.00
40920;BME280;26652;50.280;19.026;2023-09-18T03:43:01;98381.28;;;18.75;91.29
40920;BME280;26652;50.280;19.026;2023-09-18T03:45:02;98387.94;;;18.71;91.67
40920;BME280;26652;50.280;19.026;2023-09-18T03:47:03;98381.00;;;18.60;92.42
40920;BME280;26652;50.280;19.026;2023-09-18T03:49:04;98382.50;;;18.44;93.30
40920;BME280;26652;50.280;19.026;2023-09-18T03:51:05;98386.84;;;18.55;93.35
40920;BME280;26652;50.280;19.026;2023-09-18T03:53:06;98375.22;;;18.41;93.85
40920;BME280;26652;50.280;19.026;2023-09-18T03:55:07;98371.97;;;18.46;93.63
40920;BME280;26652;50.280;19.026;2023-09-18T03:57:08;98380.13;;;18.54;93.39
40920;BME280;26652;50.280;19.026;2023-09-18T03:59:09;98365.34;;;18.50;93.20
40920;BME280;26652;50.280;19.026;2023-09-18T04:01:09;98380.69;;;18.56;93.38
40920;BME280;26652;50.280;19.026;2023-09-18T04:03:10;98371.50;;;18.49;93.79
40920;BME280;26652;50.280;19.026;2023-09-18T04:05:11;98364.25;;;18.46;93.64
40920;BME280;26652;50.280;19.026;2023-09-18T04:07:11;98379.66;;;18.57;93.70
40920;BME280;26652;50.280;19.026;2023-09-18T04:09:16;98375.56;;;18.45;93.86
40920;BME280;26652;50.280;19.026;2023-09-18T04:11:18;98368.25;;;18.53;93.20
40920;BME280;26652;50.280;19.026;2023-09-18T04:13:26;98376.44;;;18.62;93.46
40920;BME280;26652;50.280;19.026;2023-09-18T04:15:27;98358.63;;;18.49;93.38
40920;BME280;26652;50.280;19.026;2023-09-18T04:17:30;98367.00;;;18.56;92.92
40920;BME280;26652;50.280;19.026;2023-09-18T04:19:31;98362.53;;;18.51;92.77
40920;BME280;26652;50.280;19.026;2023-09-18T04:21:32;98368.91;;;18.60;92.30
40920;BME280;26652;50.280;19.026;2023-09-18T04:23:33;98377.53;;;18.66;92.41
40920;BME280;26652;50.280;19.026;2023-09-18T04:25:34;98386.66;;;18.74;92.13
40920;BME280;26652;50.280;19.026;2023-09-18T04:27:35;98374.50;;;18.69;92.25
40920;BME280;26652;50.280;19.026;2023-09-18T04:29:36;98366.53;;;18.59;92.40
40920;BME280;26652;50.280;19.026;2023-09-18T04:31:37;98378.41;;;18.72;92.36
40920;BME280;26652;50.280;19.026;2023-09-18T04:33:38;98364.41;;;18.68;92.20
40920;BME280;26652;50.280;19.026;2023-09-18T04:35:39;98358.38;;;18.62;92.28
40920;BME280;26652;50.280;19.026;2023-09-18T04:37:39;98371.75;;;18.76;91.90
40920;BME280;26652;50.280;19.026;2023-09-18T04:39:40;98365.56;;;18.77;91.32
40920;BME280;26652;50.280;19.026;2023-09-18T04:41:41;98363.16;;;18.70;91.64
40920;BME280;26652;50.280;19.026;2023-09-18T04:43:41;98372.63;;;18.81;91.39
40920;BME280;26652;50.280;19.026;2023-09-18T04:45:45;98353.63;;;18.71;91.32
40920;BME280;26652;50.280;19.026;2023-09-18T04:47:45;98351.50;;;18.68;90.95
40920;BME280;26652;50.280;19.026;2023-09-18T04:49:46;98353.69;;;18.76;90.99
40920;BME280;26652;50.280;19.026;2023-09-18T04:51:48;98343.56;;;18.69;91.39
40920;BME280;26652;50.280;19.026;2023-09-18T04:53:48;98343.69;;;18.79;91.11
40920;BME280;26652;50.280;19.026;2023-09-18T04:55:49;98362.56;;;18.97;90.63
40920;BME280;26652;50.280;19.026;2023-09-18T04:57:50;98355.56;;;18.80;90.66
40920;BME280;26652;50.280;19.026;2023-09-18T04:59:51;98351.66;;;18.78;90.59
40920;BME280;26652;50.280;19.026;2023-09-18T05:01:52;98354.19;;;18.89;90.64
40920;BME280;26652;50.280;19.026;2023-09-18T05:03:53;98344.38;;;18.75;90.50
40920;BME280;26652;50.280;19.026;2023-09-18T05:05:54;98341.13;;;18.79;90.87
40920;BME280;26652;50.280;19.026;2023-09-18T05:07:54;98353.94;;;18.91;90.37
40920;BME280;26652;50.280;19.026;2023-09-18T05:09:55;98343.69;;;18.79;90.59
40920;BME280;26652;50.280;19.026;2023-09-18T05:11:56;98347.84;;;18.80;90.63
40920;BME280;26652;50.280;19.026;2023-09-18T05:13:56;98350.50;;;18.85;90.29
40920;BME280;26652;50.280;19.026;2023-09-18T05:15:57;98346.28;;;18.79;90.45
40920;BME280;26652;50.280;19.026;2023-09-18T05:18:00;98343.00;;;18.84;90.54
40920;BME280;26652;50.280;19.026;2023-09-18T05:20:00;98341.13;;;18.79;90.65
40920;BME280;26652;50.280;19.026;2023-09-18T05:22:02;98361.78;;;18.96;90.80
40920;BME280;26652;50.280;19.026;2023-09-18T05:24:03;98362.19;;;19.05;90.10
40920;BME280;26652;50.280;19.026;2023-09-18T05:26:05;98353.97;;;19.08;89.80
40920;BME280;26652;50.280;19.026;2023-09-18T05:28:05;98360.22;;;19.12;89.36
40920;BME280;26652;50.280;19.026;2023-09-18T05:30:07;98350.47;;;19.14;88.97
40920;BME280;26652;50.280;19.026;2023-09-18T05:32:08;98358.34;;;19.41;88.66
40920;BME280;26652;50.280;19.026;2023-09-18T05:34:09;98337.00;;;19.28;87.62
40920;BME280;26652;50.280;19.026;2023-09-18T05:36:10;98338.16;;;19.38;87.78
40920;BME280;26652;50.280;19.026;2023-09-18T05:38:11;98341.00;;;19.53;87.31
40920;BME280;26652;50.280;19.026;2023-09-18T05:40:14;98350.53;;;19.52;87.07
40920;BME280;26652;50.280;19.026;2023-09-18T05:42:14;98319.94;;;19.27;87.73
40920;BME280;26652;50.280;19.026;2023-09-18T05:44:15;98332.84;;;19.27;88.31
40920;BME280;26652;50.280;19.026;2023-09-18T05:46:16;98313.44;;;19.42;88.10
40920;BME280;26652;50.280;19.026;2023-09-18T05:48:16;98335.81;;;19.70;87.28
40920;BME280;26652;50.280;19.026;2023-09-18T05:50:17;98328.53;;;19.67;86.58
40920;BME280;26652;50.280;19.026;2023-09-18T05:52:18;98320.09;;;19.76;85.99
40920;BME280;26652;50.280;19.026;2023-09-18T05:54:18;98321.97;;;19.81;85.55
40920;BME280;26652;50.280;19.026;2023-09-18T05:56:19;98318.06;;;19.78;85.60
40920;BME280;26652;50.280;19.026;2023-09-18T05:58:19;98301.69;;;19.89;85.65
40920;BME280;26652;50.280;19.026;2023-09-18T06:00:25;98306.19;;;19.99;85.20
40920;BME280;26652;50.280;19.026;2023-09-18T06:02:26;98316.69;;;20.14;84.34
40920;BME280;26652;50.280;19.026;2023-09-18T06:04:27;98309.00;;;20.19;84.21
40920;BME280;26652;50.280;19.026;2023-09-18T06:06:27;98320.75;;;20.32;83.58
40920;BME280;26652;50.280;19.026;2023-09-18T06:08:29;98309.03;;;20.24;84.01
40920;BME280;26652;50.280;19.026;2023-09-18T06:10:30;98305.31;;;20.37;83.53
40920;BME280;26652;50.280;19.026;2023-09-18T06:12:31;98303.19;;;20.56;83.45
40920;BME280;26652;50.280;19.026;2023-09-18T06:14:32;98299.47;;;21.11;80.51
40920;BME280;26652;50.280;19.026;2023-09-18T06:16:35;98313.84;;;21.71;77.83
40920;BME280;26652;50.280;19.026;2023-09-18T06:18:35;98294.81;;;22.07;76.72
40920;BME280;26652;50.280;19.026;2023-09-18T06:20:38;98303.97;;;22.45;74.04
40920;BME280;26652;50.280;19.026;2023-09-18T06:22:40;98316.75;;;22.88;73.34
40920;BME280;26652;50.280;19.026;2023-09-18T06:24:42;98310.22;;;23.26;71.80
40920;BME280;26652;50.280;19.026;2023-09-18T06:26:42;98300.31;;;23.43;68.81
40920;BME280;26652;50.280;19.026;2023-09-18T06:28:43;98319.53;;;23.57;68.75
40920;BME280;26652;50.280;19.026;2023-09-18T06:30:44;98313.59;;;23.26;68.74
40920;BME280;26652;50.280;19.026;2023-09-18T06:32:44;98312.31;;;23.08;69.85
40920;BME280;26652;50.280;19.026;2023-09-18T06:34:45;98326.09;;;22.83;70.08
40920;BME280;26652;50.280;19.026;2023-09-18T06:36:48;98315.69;;;23.04;70.93
40920;BME280;26652;50.280;19.026;2023-09-18T06:38:49;98322.16;;;23.32;70.75
40920;BME280;26652;50.280;19.026;2023-09-18T06:40:50;98321.34;;;23.46;69.66
40920;BME280;26652;50.280;19.026;2023-09-18T06:42:58;98306.03;;;23.40;68.92
40920;BME280;26652;50.280;19.026;2023-09-18T06:44:58;98320.59;;;23.31;69.55
40920;BME280;26652;50.280;19.026;2023-09-18T06:46:59;98325.53;;;23.32;68.49
40920;BME280;26652;50.280;19.026;2023-09-18T06:49:00;98309.44;;;23.25;67.94
40920;BME280;26652;50.280;19.026;2023-09-18T06:51:01;98312.03;;;23.15;68.94
40920;BME280;26652;50.280;19.026;2023-09-18T06:53:01;98308.94;;;23.03;68.83
40920;BME280;26652;50.280;19.026;2023-09-18T06:55:03;98310.47;;;23.14;69.24
40920;BME280;26652;50.280;19.026;2023-09-18T06:57:03;98309.69;;;23.24;68.19
40920;BME280;26652;50.280;19.026;2023-09-18T06:59:04;98303.47;;;23.20;68.87
40920;BME280;26652;50.280;19.026;2023-09-18T07:01:05;98312.28;;;23.13;69.13
40920;BME280;26652;50.280;19.026;2023-09-18T07:03:09;98317.28;;;22.79;69.99
40920;BME280;26652;50.280;19.026;2023-09-18T07:05:10;98294.16;;;22.83;69.50
40920;BME280;26652;50.280;19.026;2023-09-18T07:07:14;98307.13;;;22.78;70.26
40920;BME280;26652;50.280;19.026;2023-09-18T07:09:15;98314.41;;;22.81;69.73
40920;BME280;26652;50.280;19.026;2023-09-18T07:11:18;98316.19;;;23.01;69.97
40920;BME280;26652;50.280;19.026;2023-09-18T07:13:19;98308.16;;;23.02;69.92
40920;BME280;26652;50.280;19.026;2023-09-18T07:15:20;98309.19;;;23.01;69.24
40920;BME280;26652;50.280;19.026;2023-09-18T07:17:20;98298.81;;;23.01;69.39
40920;BME280;26652;50.280;19.026;2023-09-18T07:19:21;98303.72;;;23.13;69.89
40920;BME280;26652;50.280;19.026;2023-09-18T07:21:22;98308.41;;;23.21;69.02
40920;BME280;26652;50.280;19.026;2023-09-18T07:23:23;98321.38;;;23.11;68.90
40920;BME280;26652;50.280;19.026;2023-09-18T07:25:23;98307.38;;;23.07;69.50
40920;BME280;26652;50.280;19.026;2023-09-18T07:27:24;98308.41;;;23.16;68.98
40920;BME280;26652;50.280;19.026;2023-09-18T07:29:25;98297.00;;;22.92;70.73
40920;BME280;26652;50.280;19.026;2023-09-18T07:31:25;98294.66;;;22.75;70.18
40920;BME280;26652;50.280;19.026;2023-09-18T07:33:26;98304.78;;;22.97;70.83
40920;BME280;26652;50.280;19.026;2023-09-18T07:35:27;98290.50;;;22.94;70.16
40920;BME280;26652;50.280;19.026;2023-09-18T07:37:28;98292.31;;;22.99;70.93
40920;BME280;26652;50.280;19.026;2023-09-18T07:39:28;98299.31;;;22.93;70.28
40920;BME280;26652;50.280;19.026;2023-09-18T07:41:30;98293.66;;;22.86;70.84
40920;BME280;26652;50.280;19.026;2023-09-18T07:43:31;98282.97;;;22.93;70.70
40920;BME280;26652;50.280;19.026;2023-09-18T07:45:33;98295.44;;;22.91;70.18
40920;BME280;26652;50.280;19.026;2023-09-18T07:47:35;98287.13;;;22.73;70.66
40920;BME280;26652;50.280;19.026;2023-09-18T07:49:36;98301.94;;;22.88;71.04
40920;BME280;26652;50.280;19.026;2023-09-18T07:51:37;98296.50;;;22.85;70.93
40920;BME280;26652;50.280;19.026;2023-09-18T07:53:39;98302.22;;;22.87;69.90
40920;BME280;26652;50.280;19.026;2023-09-18T07:55:39;98280.41;;;22.82;70.57
40920;BME280;26652;50.280;19.026;2023-09-18T07:57:40;98280.41;;;22.88;69.84
40920;BME280;26652;50.280;19.026;2023-09-18T07:59:41;98270.50;;;22.95;70.63
40920;BME280;26652;50.280;19.026;2023-09-18T08:01:43;98283.75;;;23.03;70.30
40920;BME280;26652;50.280;19.026;2023-09-18T08:03:44;98289.19;;;23.07;69.79
40920;BME280;26652;50.280;19.026;2023-09-18T08:05:45;98287.88;;;23.14;69.00
40920;BME280;26652;50.280;19.026;2023-09-18T08:07:48;98284.75;;;23.17;68.98
40920;BME280;26652;50.280;19.026;2023-09-18T08:09:50;98284.22;;;23.26;70.23
40920;BME280;26652;50.280;19.026;2023-09-18T08:11:50;98281.63;;;23.21;68.28
40920;BME280;26652;50.280;19.026;2023-09-18T08:13:54;98296.41;;;23.56;67.97
40920;BME280;26652;50.280;19.026;2023-09-18T08:15:54;98280.72;;;23.81;66.80
40920;BME280;26652;50.280;19.026;2023-09-18T08:17:55;98275.56;;;24.15;66.01
40920;BME280;26652;50.280;19.026;2023-09-18T08:19:56;98287.22;;;24.33;65.21
40920;BME280;26652;50.280;19.026;2023-09-18T08:21:56;98277.56;;;24.33;64.73
40920;BME280;26652;50.280;19.026;2023-09-18T08:23:57;98269.31;;;24.16;65.49
40920;BME280;26652;50.280;19.026;2023-09-18T08:25:58;98280.84;;;24.05;65.91
40920;BME280;26652;50.280;19.026;2023-09-18T08:27:59;98270.41;;;24.10;65.75
40920;BME280;26652;50.280;19.026;2023-09-18T08:29:59;98263.03;;;24.22;65.45
40920;BME280;26652;50.280;19.026;2023-09-18T08:32:00;98253.16;;;24.29;65.78
40920;BME280;26652;50.280;19.026;2023-09-18T08:34:01;98270.31;;;24.30;64.93
40920;BME280;26652;50.280;19.026;2023-09-18T08:36:02;98257.50;;;24.39;65.02
40920;BME280;26652;50.280;19.026;2023-09-18T08:38:02;98255.44;;;24.36;64.74
40920;BME280;26652;50.280;19.026;2023-09-18T08:40:05;98255.19;;;24.32;63.62
40920;BME280;26652;50.280;19.026;2023-09-18T08:42:10;98257.03;;;24.32;64.34
40920;BME280;26652;50.280;19.026;2023-09-18T08:44:12;98267.09;;;24.43;63.97
40920;BME280;26652;50.280;19.026;2023-09-18T08:46:12;98257.47;;;24.44;63.97
40920;BME280;26652;50.280;19.026;2023-09-18T08:48:14;98267.00;;;24.59;63.86
40920;BME280;26652;50.280;19.026;2023-09-18T08:50:15;98250.72;;;24.43;63.72
40920;BME280;26652;50.280;19.026;2023-09-18T08:52:16;98258.09;;;24.65;63.64
40920;BME280;26652;50.280;19.026;2023-09-18T08:54:18;98254.16;;;24.67;63.23
40920;BME280;26652;50.280;19.026;2023-09-18T08:56:20;98256.13;;;24.81;63.63
40920;BME280;26652;50.280;19.026;2023-09-18T08:58:21;98233.19;;;24.83;62.83
40920;BME280;26652;50.280;19.026;2023-09-18T09:00:23;98255.53;;;24.89;62.23
40920;BME280;26652;50.280;19.026;2023-09-18T09:02:23;98236.25;;;24.90;62.53
40920;BME280;26652;50.280;19.026;2023-09-18T09:04:24;98251.38;;;24.88;62.19
40920;BME280;26652;50.280;19.026;2023-09-18T09:06:25;98250.56;;;24.92;62.38
40920;BME280;26652;50.280;19.026;2023-09-18T09:08:25;98223.78;;;24.87;62.96
40920;BME280;26652;50.280;19.026;2023-09-18T09:10:26;98224.38;;;24.78;61.75
40920;BME280;26652;50.280;19.026;2023-09-18T09:15:03;98229.44;;;24.94;61.77
40920;BME280;26652;50.280;19.026;2023-09-18T09:17:04;98216.66;;;24.97;61.39
40920;BME280;26652;50.280;19.026;2023-09-18T09:19:05;98237.06;;;25.14;62.00
40920;BME280;26652;50.280;19.026;2023-09-18T09:21:06;98230.75;;;25.20;60.68
40920;BME280;26652;50.280;19.026;2023-09-18T09:23:09;98231.81;;;25.19;61.00
40920;BME280;26652;50.280;19.026;2023-09-18T09:25:23;98232.25;;;25.26;61.13
40920;BME280;26652;50.280;19.026;2023-09-18T09:27:26;98213.44;;;25.29;61.18
40920;BME280;26652;50.280;19.026;2023-09-18T09:29:27;98221.16;;;25.39;60.49
40920;BME280;26652;50.280;19.026;2023-09-18T09:31:29;98211.69;;;25.25;61.02
40920;BME280;26652;50.280;19.026;2023-09-18T09:33:31;98212.13;;;25.32;61.32
40920;BME280;26652;50.280;19.026;2023-09-18T09:35:36;98220.88;;;25.41;60.96
40920;BME280;26652;50.280;19.026;2023-09-18T09:37:37;98210.72;;;25.39;60.24
40920;BME280;26652;50.280;19.026;2023-09-18T09:39:50;98215.81;;;25.50;61.16
40920;BME280;26652;50.280;19.026;2023-09-18T09:41:52;98212.22;;;25.46;60.95
40920;BME280;26652;50.280;19.026;2023-09-18T09:43:53;98210.78;;;25.34;60.88
40920;BME280;26652;50.280;19.026;2023-09-18T09:46:02;98216.16;;;25.19;61.07
40920;BME280;26652;50.280;19.026;2023-09-18T09:48:04;98198.16;;;25.23;62.01
40920;BME280;26652;50.280;19.026;2023-09-18T09:50:08;98206.06;;;25.36;61.89
40920;BME280;26652;50.280;19.026;2023-09-18T09:52:18;98205.50;;;25.39;61.44
40920;BME280;26652;50.280;19.026;2023-09-18T09:54:34;98202.13;;;25.39;61.03
40920;BME280;26652;50.280;19.026;2023-09-18T09:58:43;98193.78;;;25.61;61.24
40920;BME280;26652;50.280;19.026;2023-09-18T10:00:51;98199.28;;;25.59;61.20
40920;BME280;26652;50.280;19.026;2023-09-18T10:02:59;98199.09;;;25.74;60.04
40920;BME280;26652;50.280;19.026;2023-09-18T10:05:01;98192.13;;;25.70;60.27
40920;BME280;26652;50.280;19.026;2023-09-18T10:07:07;98190.72;;;25.78;60.33
40920;BME280;26652;50.280;19.026;2023-09-18T10:09:08;98200.44;;;25.91;59.58
40920;BME280;26652;50.280;19.026;2023-09-18T10:11:13;98198.59;;;25.91;59.66
40920;BME280;26652;50.280;19.026;2023-09-18T10:13:23;98198.59;;;25.91;60.06
40920;BME280;26652;50.280;19.026;2023-09-18T10:15:28;98183.84;;;26.00;58.42
40920;BME280;26652;50.280;19.026;2023-09-18T10:17:32;98183.47;;;26.07;59.36
40920;BME280;26652;50.280;19.026;2023-09-18T10:19:48;98201.19;;;26.10;58.17
40920;BME280;26652;50.280;19.026;2023-09-18T10:22:05;98196.66;;;26.16;57.87
40920;BME280;26652;50.280;19.026;2023-09-18T10:24:16;98196.44;;;26.12;57.74
40920;BME280;26652;50.280;19.026;2023-09-18T10:26:23;98193.00;;;26.17;57.39
40920;BME280;26652;50.280;19.026;2023-09-18T10:28:30;98187.56;;;26.32;56.25
40920;BME280;26652;50.280;19.026;2023-09-18T10:30:32;98186.34;;;26.43;56.07
40920;BME280;26652;50.280;19.026;2023-09-18T10:32:35;98192.44;;;26.52;54.75
40920;BME280;26652;50.280;19.026;2023-09-18T10:34:36;98195.47;;;26.59;54.80
40920;BME280;26652;50.280;19.026;2023-09-18T10:36:37;98181.34;;;26.60;55.11
40920;BME280;26652;50.280;19.026;2023-09-18T10:38:38;98173.50;;;26.60;54.81
40920;BME280;26652;50.280;19.026;2023-09-18T10:40:40;98178.44;;;26.62;54.40